createdAt,value
2023-03-23T15:57:57.027Z,85.32
2023-03-23T16:00:29.093Z,85.35
2023-03-23T16:03:04.428Z,85.22
2023-03-23T16:05:33.703Z,85.82
2023-03-23T16:08:00.971Z,85.74
2023-03-23T16:10:29.305Z,85.22
2023-03-23T16:12:56.584Z,85.28
2023-03-23T16:15:24.540Z,84.89
2023-03-23T16:17:52.519Z,85.09
2023-03-23T16:20:23.317Z,84.74
2023-03-23T16:22:52.103Z,85.34
2023-03-23T16:25:20.565Z,85.25
2023-03-23T16:27:52.455Z,85.32
2023-03-23T16:30:28.398Z,86.12
2023-03-23T16:32:57.818Z,86.38
2023-03-23T16:35:26.498Z,85.21
2023-03-23T16:38:08.181Z,85.68
2023-03-23T16:40:37.734Z,85.54
2023-03-23T16:43:09.293Z,85.69
2023-03-23T16:45:43.219Z,85.68
2023-03-23T16:48:37.458Z,85.56
2023-03-23T16:51:04.674Z,85.60
2023-03-23T16:53:32.571Z,85.78
2023-03-23T16:56:00.530Z,85.63
2023-03-23T16:58:28.664Z,85.86
2023-03-23T17:00:56.477Z,85.91
2023-03-23T17:03:24.643Z,85.97
2023-03-23T17:05:52.935Z,85.78
2023-03-23T17:08:21.315Z,85.43
2023-03-23T17:10:54.483Z,85.77
2023-03-23T17:13:22.634Z,85.91
2023-03-23T17:15:53.809Z,85.82
2023-03-23T17:18:24.131Z,85.92
2023-03-23T17:20:53.400Z,85.53
2023-03-23T17:23:21.264Z,86.05
2023-03-23T17:25:54.691Z,86.05
2023-03-23T17:28:27.530Z,85.99
2023-03-23T17:30:54.514Z,86.20
2023-03-23T17:33:27.673Z,86.00
2023-03-23T17:35:55.081Z,85.77
2023-03-23T17:38:22.527Z,85.97
2023-03-23T17:41:00.212Z,85.70
2023-03-23T17:43:28.563Z,85.92
2023-03-23T17:45:56.565Z,85.85
2023-03-23T17:48:24.599Z,85.95
2023-03-23T17:50:59.964Z,85.73
2023-03-23T17:53:30.813Z,85.79
2023-03-23T18:01:42.704Z,85.98
2023-03-23T18:04:10.627Z,85.81
2023-03-23T18:06:43.874Z,85.55
2023-03-23T18:09:10.894Z,85.73
2023-03-23T18:11:44.479Z,85.88
2023-03-23T18:14:16.863Z,85.99
2023-03-23T18:16:48.682Z,85.91
2023-03-23T18:19:16.862Z,85.96
2023-03-23T18:21:46.821Z,85.89
2023-03-23T18:24:14.678Z,86.08
2023-03-23T18:26:42.560Z,86.28
2023-03-23T18:29:14.556Z,86.21
2023-03-23T18:31:44.116Z,85.93
2023-03-23T18:34:17.775Z,86.05
2023-03-23T18:36:44.467Z,85.97
2023-03-23T18:39:12.594Z,86.12
2023-03-23T18:42:05.493Z,86.12
2023-03-23T18:44:37.639Z,85.99
2023-03-23T18:47:30.776Z,86.09
2023-03-23T18:49:59.624Z,86.16
2023-03-23T18:52:30.144Z,86.07
2023-03-23T18:54:59.194Z,86.15
2023-03-23T18:57:26.739Z,86.23
2023-03-23T19:03:13.757Z,86.49
2023-03-23T19:05:42.310Z,86.23
2023-03-23T19:08:10.702Z,86.56
2023-03-23T19:10:43.369Z,86.40
2023-03-23T19:13:11.254Z,86.63
2023-03-23T19:15:45.168Z,86.43
2023-03-23T19:18:12.502Z,86.59
2023-03-23T19:21:12.435Z,86.24
2023-03-23T19:23:32.612Z,86.29
2023-03-23T19:26:00.550Z,86.37
2023-03-23T19:30:59.100Z,86.38
2023-03-23T19:33:26.781Z,86.45
2023-03-23T19:36:05.893Z,86.43
2023-03-23T19:38:42.497Z,86.78
2023-03-23T19:41:11.020Z,86.77
2023-03-23T19:44:28.902Z,86.67
2023-03-23T19:47:13.842Z,86.64
2023-03-23T19:49:46.541Z,86.53
2023-03-23T19:54:46.614Z,87.16
2023-03-23T19:57:15.471Z,87.01
2023-03-23T19:59:43.038Z,86.96
2023-03-23T20:02:13.784Z,87.45
2023-03-23T20:04:41.120Z,87.50
2023-03-23T20:07:08.623Z,87.17
2023-03-23T20:09:40.971Z,87.78
2023-03-23T20:15:23.286Z,87.52
2023-03-23T20:17:53.254Z,87.71
2023-03-23T20:20:52.698Z,87.44
2023-03-23T20:23:23.052Z,87.51
2023-03-23T20:25:51.373Z,87.81
2023-03-23T20:28:23.532Z,87.98
2023-03-23T20:34:01.097Z,88.00
2023-03-23T20:39:48.853Z,88.42
2023-03-23T20:42:16.929Z,88.36
2023-03-23T20:44:44.789Z,88.46
2023-03-23T20:47:12.615Z,88.46
2023-03-23T20:50:45.723Z,88.55
2023-03-23T20:59:22.488Z,87.91
2023-03-23T21:02:18.215Z,87.75
2023-03-23T21:04:47.590Z,87.94
2023-03-23T21:07:16.166Z,88.44
2023-03-23T21:09:44.689Z,88.47
2023-03-23T21:12:16.731Z,87.88
2023-03-23T21:14:45.029Z,87.96
2023-03-23T21:17:30.903Z,88.02
2023-03-23T21:20:03.591Z,88.02
2023-03-23T21:22:30.516Z,87.83
2023-03-23T21:25:03.819Z,88.07
2023-03-23T21:27:30.854Z,88.43
2023-03-23T21:30:05.223Z,88.25
2023-03-23T21:32:32.567Z,88.27
2023-03-23T21:35:07.631Z,88.33
2023-03-23T21:37:41.264Z,88.16
2023-03-23T21:40:13.649Z,88.30
2023-03-23T21:42:42.133Z,88.58
2023-03-23T21:48:11.477Z,89.33
2023-03-23T21:50:44.226Z,88.79
2023-03-23T21:53:12.862Z,89.07
2023-03-23T21:55:43.535Z,89.51
2023-03-23T21:58:10.507Z,89.41
2023-03-23T22:00:38.708Z,89.58
2023-03-23T22:03:07.305Z,89.12
2023-03-23T22:05:45.664Z,89.56
2023-03-23T22:11:12.630Z,90.22
2023-03-23T22:16:36.747Z,90.33
2023-03-23T22:19:15.080Z,90.60
2023-03-23T22:24:35.033Z,90.59
2023-03-23T22:27:26.608Z,89.93
2023-03-23T22:29:59.639Z,89.92
2023-03-23T22:32:32.369Z,90.36
2023-03-23T22:35:26.233Z,89.90
2023-03-23T22:40:54.574Z,89.73
2023-03-23T22:43:22.738Z,89.86
2023-03-23T22:45:54.479Z,90.35
2023-03-23T22:48:24.378Z,90.25
2023-03-23T22:50:55.627Z,89.84
2023-03-23T22:53:22.637Z,89.87
2023-03-23T22:58:46.677Z,89.37
2023-03-23T23:04:15.968Z,89.04
2023-03-23T23:07:13.097Z,89.21
2023-03-23T23:09:41.914Z,89.69
2023-03-23T23:12:11.764Z,89.95
2023-03-23T23:14:39.791Z,89.92
2023-03-23T23:17:06.820Z,89.84
2023-03-23T23:19:34.525Z,90.07
2023-03-23T23:24:56.824Z,89.52
2023-03-23T23:27:24.609Z,89.75
2023-03-23T23:29:53.240Z,89.75
2023-03-23T23:32:21.120Z,89.56
2023-03-23T23:34:52.924Z,89.83
2023-03-23T23:37:20.610Z,89.80
2023-03-23T23:39:52.551Z,89.80
2023-03-23T23:42:20.554Z,89.70
2023-03-23T23:47:41.799Z,90.06
2023-03-23T23:50:20.584Z,89.48
2023-03-23T23:52:50.062Z,89.63
